Disclaimer

Please do not use the information listed here in-flight or in-navigation, as they are not provided to us by the airports but are provided by volunteers, so they might be outdated.

Search


Regions


Airport information page

Radio informations:
CARMEN TWR - 118.4 MHz

Airport informations:
Latitude: 18° 39' 13.46" N
Longitude: 091° 47' 56.46" W
Elevation: 10 feet - 3 meters
Operating hours: Remarks
Operating agency: Civil government, landing fees and diplomatic clearance may be required
Timezone: UTC-6(-5DT) - First Sunday in April to the last Saturday in October
Fuel: Jet A1, without icing nhibitor.

100/130 octane gasoline, leaded, MIL-L-5572F (GREEN)

Runway information:
13/31 - 7218 x 148 feet< - >2200 x 45 meters

Recent METARs:
MMCE 131842Z 15005KT 7SM FEW025TCU 31/22 A2993 RMK 8/200
MMCE 131949Z 36007KT 7SM FEW025TCU SCT300 30/23 A2991 RMK 8/208
MMCE 131949Z 36007KT 7SM FEW025TCU SCT300 30/23 A2991 RMK 8/208

Airport on the map: